sensor_id;sensor_type;location;lat;lon;timestamp;pressure;altitude;pressure_sealevel;temperature
61595;BMP280;47397;48.194;11.632;2023-05-29T00:00:37;95930.53;;;10.87
61595;BMP280;47397;48.194;11.632;2023-05-29T00:01:37;95927.97;;;10.89
61595;BMP280;47397;48.194;11.632;2023-05-29T00:02:37;95935.22;;;10.69
61595;BMP280;47397;48.194;11.632;2023-05-29T00:03:38;95927.75;;;10.62
61595;BMP280;47397;48.194;11.632;2023-05-29T00:04:38;95926.94;;;10.60
61595;BMP280;47397;48.194;11.632;2023-05-29T00:05:39;95935.25;;;10.67
61595;BMP280;47397;48.194;11.632;2023-05-29T00:06:39;95940.19;;;10.73
61595;BMP280;47397;48.194;11.632;2023-05-29T00:07:40;95933.81;;;10.57
61595;BMP280;47397;48.194;11.632;2023-05-29T00:08:41;95931.56;;;10.45
61595;BMP280;47397;48.194;11.632;2023-05-29T00:09:41;95932.09;;;10.57
61595;BMP280;47397;48.194;11.632;2023-05-29T00:10:41;95926.16;;;10.58
61595;BMP280;47397;48.194;11.632;2023-05-29T00:11:42;95921.63;;;10.70
61595;BMP280;47397;48.194;11.632;2023-05-29T00:12:42;95928.94;;;10.48
61595;BMP280;47397;48.194;11.632;2023-05-29T00:13:44;95924.88;;;10.39
61595;BMP280;47397;48.194;11.632;2023-05-29T00:14:44;95922.41;;;10.36
61595;BMP280;47397;48.194;11.632;2023-05-29T00:15:46;95921.03;;;10.60
61595;BMP280;47397;48.194;11.632;2023-05-29T00:16:46;95922.34;;;10.39
61595;BMP280;47397;48.194;11.632;2023-05-29T00:17:47;95926.28;;;10.52
61595;BMP280;47397;48.194;11.632;2023-05-29T00:18:47;95928.66;;;10.60
61595;BMP280;47397;48.194;11.632;2023-05-29T00:19:47;95930.50;;;10.53
61595;BMP280;47397;48.194;11.632;2023-05-29T00:20:48;95927.69;;;10.64
61595;BMP280;47397;48.194;11.632;2023-05-29T00:21:48;95927.47;;;10.38
61595;BMP280;47397;48.194;11.632;2023-05-29T00:22:49;95931.00;;;10.30
61595;BMP280;47397;48.194;11.632;2023-05-29T00:23:49;95932.88;;;10.22
61595;BMP280;47397;48.194;11.632;2023-05-29T00:24:49;95925.09;;;10.30
61595;BMP280;47397;48.194;11.632;2023-05-29T00:25:50;95928.44;;;10.32
61595;BMP280;47397;48.194;11.632;2023-05-29T00:26:50;95936.41;;;10.15
61595;BMP280;47397;48.194;11.632;2023-05-29T00:27:51;95925.94;;;10.30
61595;BMP280;47397;48.194;11.632;2023-05-29T00:28:52;95923.81;;;10.49
61595;BMP280;47397;48.194;11.632;2023-05-29T00:29:53;95924.91;;;10.38
61595;BMP280;47397;48.194;11.632;2023-05-29T00:30:53;95921.81;;;10.25
61595;BMP280;47397;48.194;11.632;2023-05-29T00:31:53;95924.13;;;10.36
61595;BMP280;47397;48.194;11.632;2023-05-29T00:32:54;95925.72;;;10.41
61595;BMP280;47397;48.194;11.632;2023-05-29T00:33:54;95921.25;;;10.51
61595;BMP280;47397;48.194;11.632;2023-05-29T00:34:55;95919.63;;;10.48
61595;BMP280;47397;48.194;11.632;2023-05-29T00:35:55;95923.69;;;10.55
61595;BMP280;47397;48.194;11.632;2023-05-29T00:36:55;95923.13;;;10.43
61595;BMP280;47397;48.194;11.632;2023-05-29T00:37:57;95918.78;;;10.48
61595;BMP280;47397;48.194;11.632;2023-05-29T00:38:57;95917.88;;;10.50
61595;BMP280;47397;48.194;11.632;2023-05-29T00:39:58;95921.97;;;10.56
61595;BMP280;47397;48.194;11.632;2023-05-29T00:40:58;95921.78;;;10.63
61595;BMP280;47397;48.194;11.632;2023-05-29T00:41:58;95920.34;;;10.53
61595;BMP280;47397;48.194;11.632;2023-05-29T00:42:59;95928.72;;;10.57
61595;BMP280;47397;48.194;11.632;2023-05-29T00:44:01;95919.66;;;10.47
61595;BMP280;47397;48.194;11.632;2023-05-29T00:45:01;95925.50;;;10.10
61595;BMP280;47397;48.194;11.632;2023-05-29T00:46:02;95923.00;;;10.09
61595;BMP280;47397;48.194;11.632;2023-05-29T00:47:02;95925.41;;;10.15
61595;BMP280;47397;48.194;11.632;2023-05-29T00:48:03;95923.31;;;10.33
61595;BMP280;47397;48.194;11.632;2023-05-29T00:49:05;95927.50;;;10.36
61595;BMP280;47397;48.194;11.632;2023-05-29T00:50:06;95931.84;;;10.31
61595;BMP280;47397;48.194;11.632;2023-05-29T00:51:08;95926.00;;;10.27
61595;BMP280;47397;48.194;11.632;2023-05-29T00:52:10;95925.22;;;10.24
61595;BMP280;47397;48.194;11.632;2023-05-29T00:53:10;95923.91;;;10.06
61595;BMP280;47397;48.194;11.632;2023-05-29T00:54:13;95926.47;;;10.03
61595;BMP280;47397;48.194;11.632;2023-05-29T00:55:15;95925.47;;;10.12
61595;BMP280;47397;48.194;11.632;2023-05-29T00:56:16;95926.22;;;10.17
61595;BMP280;47397;48.194;11.632;2023-05-29T00:57:17;95921.94;;;10.20
61595;BMP280;47397;48.194;11.632;2023-05-29T00:58:18;95926.94;;;10.23
61595;BMP280;47397;48.194;11.632;2023-05-29T00:59:21;95925.28;;;10.22
61595;BMP280;47397;48.194;11.632;2023-05-29T01:00:22;95932.88;;;10.22
61595;BMP280;47397;48.194;11.632;2023-05-29T01:01:22;95929.41;;;10.26
61595;BMP280;47397;48.194;11.632;2023-05-29T01:02:23;95933.72;;;10.23
61595;BMP280;47397;48.194;11.632;2023-05-29T01:03:24;95934.63;;;10.19
61595;BMP280;47397;48.194;11.632;2023-05-29T01:04:25;95930.81;;;9.98
61595;BMP280;47397;48.194;11.632;2023-05-29T01:05:26;95930.63;;;10.09
61595;BMP280;47397;48.194;11.632;2023-05-29T01:06:27;95934.81;;;10.11
61595;BMP280;47397;48.194;11.632;2023-05-29T01:07:27;95934.03;;;10.08
61595;BMP280;47397;48.194;11.632;2023-05-29T01:08:28;95932.28;;;10.10
61595;BMP280;47397;48.194;11.632;2023-05-29T01:09:28;95939.03;;;10.11
61595;BMP280;47397;48.194;11.632;2023-05-29T01:10:29;95936.31;;;10.20
61595;BMP280;47397;48.194;11.632;2023-05-29T01:11:35;95932.06;;;10.22
61595;BMP280;47397;48.194;11.632;2023-05-29T01:12:40;95936.69;;;10.01
61595;BMP280;47397;48.194;11.632;2023-05-29T01:13:44;95927.72;;;9.85
61595;BMP280;47397;48.194;11.632;2023-05-29T01:15:01;95931.72;;;9.95
61595;BMP280;47397;48.194;11.632;2023-05-29T01:16:09;95929.84;;;10.05
61595;BMP280;47397;48.194;11.632;2023-05-29T01:17:17;95932.53;;;9.97
61595;BMP280;47397;48.194;11.632;2023-05-29T01:18:27;95932.91;;;9.79
61595;BMP280;47397;48.194;11.632;2023-05-29T01:19:45;95927.63;;;9.90
61595;BMP280;47397;48.194;11.632;2023-05-29T01:20:50;95929.75;;;10.10
61595;BMP280;47397;48.194;11.632;2023-05-29T01:22:00;95921.44;;;10.01
61595;BMP280;47397;48.194;11.632;2023-05-29T01:24:38;95930.66;;;9.64
61595;BMP280;47397;48.194;11.632;2023-05-29T01:25:58;95931.03;;;9.89
61595;BMP280;47397;48.194;11.632;2023-05-29T01:27:03;95926.00;;;9.86
61595;BMP280;47397;48.194;11.632;2023-05-29T01:28:07;95923.31;;;9.93
61595;BMP280;47397;48.194;11.632;2023-05-29T01:29:10;95924.22;;;9.91
61595;BMP280;47397;48.194;11.632;2023-05-29T01:30:14;95933.56;;;9.89
61595;BMP280;47397;48.194;11.632;2023-05-29T01:31:19;95926.53;;;10.01
61595;BMP280;47397;48.194;11.632;2023-05-29T01:32:21;95928.25;;;9.99
61595;BMP280;47397;48.194;11.632;2023-05-29T01:33:21;95930.09;;;9.93
61595;BMP280;47397;48.194;11.632;2023-05-29T01:34:22;95931.44;;;9.69
61595;BMP280;47397;48.194;11.632;2023-05-29T01:35:22;95933.34;;;9.56
61595;BMP280;47397;48.194;11.632;2023-05-29T01:36:23;95940.03;;;9.60
61595;BMP280;47397;48.194;11.632;2023-05-29T01:37:24;95926.31;;;9.72
61595;BMP280;47397;48.194;11.632;2023-05-29T01:38:24;95936.72;;;9.57
61595;BMP280;47397;48.194;11.632;2023-05-29T01:39:25;95929.81;;;9.65
61595;BMP280;47397;48.194;11.632;2023-05-29T01:40:26;95939.72;;;9.77
61595;BMP280;47397;48.194;11.632;2023-05-29T01:41:27;95937.22;;;9.76
61595;BMP280;47397;48.194;11.632;2023-05-29T01:42:30;95937.84;;;9.87
61595;BMP280;47397;48.194;11.632;2023-05-29T01:43:31;95930.38;;;9.79
61595;BMP280;47397;48.194;11.632;2023-05-29T01:44:31;95936.09;;;9.89
61595;BMP280;47397;48.194;11.632;2023-05-29T01:45:32;95936.13;;;9.87
61595;BMP280;47397;48.194;11.632;2023-05-29T01:46:33;95933.75;;;9.80
61595;BMP280;47397;48.194;11.632;2023-05-29T01:47:34;95934.50;;;9.85
61595;BMP280;47397;48.194;11.632;2023-05-29T01:48:35;95939.22;;;9.60
61595;BMP280;47397;48.194;11.632;2023-05-29T01:49:36;95936.91;;;9.48
61595;BMP280;47397;48.194;11.632;2023-05-29T01:50:37;95934.53;;;9.40
61595;BMP280;47397;48.194;11.632;2023-05-29T01:51:38;95933.81;;;9.33
61595;BMP280;47397;48.194;11.632;2023-05-29T01:52:39;95936.41;;;9.30
61595;BMP280;47397;48.194;11.632;2023-05-29T01:53:41;95931.25;;;9.35
61595;BMP280;47397;48.194;11.632;2023-05-29T01:54:41;95929.66;;;9.29
61595;BMP280;47397;48.194;11.632;2023-05-29T01:55:42;95929.38;;;9.45
61595;BMP280;47397;48.194;11.632;2023-05-29T01:56:43;95927.31;;;9.62
61595;BMP280;47397;48.194;11.632;2023-05-29T01:57:46;95932.63;;;9.51
61595;BMP280;47397;48.194;11.632;2023-05-29T01:58:47;95934.16;;;9.58
61595;BMP280;47397;48.194;11.632;2023-05-29T01:59:48;95938.22;;;9.68
61595;BMP280;47397;48.194;11.632;2023-05-29T02:00:49;95934.16;;;9.58
61595;BMP280;47397;48.194;11.632;2023-05-29T02:01:49;95938.63;;;9.47
61595;BMP280;47397;48.194;11.632;2023-05-29T02:02:50;95934.06;;;9.63
61595;BMP280;47397;48.194;11.632;2023-05-29T02:03:50;95938.47;;;9.55
61595;BMP280;47397;48.194;11.632;2023-05-29T02:04:51;95934.59;;;9.37
61595;BMP280;47397;48.194;11.632;2023-05-29T02:05:51;95933.75;;;9.36
61595;BMP280;47397;48.194;11.632;2023-05-29T02:06:51;95937.97;;;9.37
61595;BMP280;47397;48.194;11.632;2023-05-29T02:07:52;95933.31;;;9.59
61595;BMP280;47397;48.194;11.632;2023-05-29T02:08:52;95935.06;;;9.56
61595;BMP280;47397;48.194;11.632;2023-05-29T02:09:53;95933.44;;;9.52
61595;BMP280;47397;48.194;11.632;2023-05-29T02:10:53;95934.94;;;9.62
61595;BMP280;47397;48.194;11.632;2023-05-29T02:11:54;95944.16;;;9.67
61595;BMP280;47397;48.194;11.632;2023-05-29T02:12:55;95938.34;;;9.61
61595;BMP280;47397;48.194;11.632;2023-05-29T02:13:56;95931.53;;;9.63
61595;BMP280;47397;48.194;11.632;2023-05-29T02:14:56;95931.44;;;9.69
61595;BMP280;47397;48.194;11.632;2023-05-29T02:15:57;95935.72;;;9.67
61595;BMP280;47397;48.194;11.632;2023-05-29T02:16:57;95930.69;;;9.62
61595;BMP280;47397;48.194;11.632;2023-05-29T02:17:57;95930.69;;;9.62
61595;BMP280;47397;48.194;11.632;2023-05-29T02:18:58;95932.28;;;9.69
61595;BMP280;47397;48.194;11.632;2023-05-29T02:19:58;95929.63;;;9.76
61595;BMP280;47397;48.194;11.632;2023-05-29T02:20:59;95933.81;;;9.77
61595;BMP280;47397;48.194;11.632;2023-05-29T02:21:59;95930.78;;;9.58
61595;BMP280;47397;48.194;11.632;2023-05-29T02:22:59;95921.88;;;9.38
61595;BMP280;47397;48.194;11.632;2023-05-29T02:24:00;95928.47;;;9.47
61595;BMP280;47397;48.194;11.632;2023-05-29T02:25:00;95924.44;;;9.37
61595;BMP280;47397;48.194;11.632;2023-05-29T02:26:01;95923.41;;;9.47
61595;BMP280;47397;48.194;11.632;2023-05-29T02:27:01;95929.13;;;9.57
61595;BMP280;47397;48.194;11.632;2023-05-29T02:28:03;95924.13;;;9.52
61595;BMP280;47397;48.194;11.632;2023-05-29T02:29:03;95921.69;;;9.48
61595;BMP280;47397;48.194;11.632;2023-05-29T02:30:05;95927.63;;;9.47
61595;BMP280;47397;48.194;11.632;2023-05-29T02:31:05;95918.16;;;9.55
61595;BMP280;47397;48.194;11.632;2023-05-29T02:32:06;95927.69;;;9.44
61595;BMP280;47397;48.194;11.632;2023-05-29T02:33:06;95921.69;;;9.48
61595;BMP280;47397;48.194;11.632;2023-05-29T02:34:07;95925.41;;;9.28
61595;BMP280;47397;48.194;11.632;2023-05-29T02:35:08;95928.91;;;9.23
61595;BMP280;47397;48.194;11.632;2023-05-29T02:36:08;95929.81;;;9.20
61595;BMP280;47397;48.194;11.632;2023-05-29T02:37:09;95922.78;;;9.34
61595;BMP280;47397;48.194;11.632;2023-05-29T02:38:09;95930.28;;;9.40
61595;BMP280;47397;48.194;11.632;2023-05-29T02:39:09;95933.00;;;9.31
61595;BMP280;47397;48.194;11.632;2023-05-29T02:40:10;95931.34;;;9.27
61595;BMP280;47397;48.194;11.632;2023-05-29T02:41:11;95929.81;;;9.19
61595;BMP280;47397;48.194;11.632;2023-05-29T02:42:11;95928.53;;;8.96
61595;BMP280;47397;48.194;11.632;2023-05-29T02:43:13;95924.97;;;9.06
61595;BMP280;47397;48.194;11.632;2023-05-29T02:44:14;95925.50;;;9.24
61595;BMP280;47397;48.194;11.632;2023-05-29T02:45:14;95927.25;;;9.20
61595;BMP280;47397;48.194;11.632;2023-05-29T02:46:15;95926.69;;;9.06
61595;BMP280;47397;48.194;11.632;2023-05-29T02:47:15;95928.88;;;9.24
61595;BMP280;47397;48.194;11.632;2023-05-29T02:48:15;95921.25;;;9.26
61595;BMP280;47397;48.194;11.632;2023-05-29T02:49:16;95926.25;;;9.29
61595;BMP280;47397;48.194;11.632;2023-05-29T02:50:16;95928.78;;;9.29
61595;BMP280;47397;48.194;11.632;2023-05-29T02:51:17;95925.28;;;9.37
61595;BMP280;47397;48.194;11.632;2023-05-29T02:52:17;95926.19;;;9.33
61595;BMP280;47397;48.194;11.632;2023-05-29T02:53:17;95934.56;;;9.38
61595;BMP280;47397;48.194;11.632;2023-05-29T02:54:18;95924.53;;;9.32
61595;BMP280;47397;48.194;11.632;2023-05-29T02:55:18;95928.78;;;9.30
61595;BMP280;47397;48.194;11.632;2023-05-29T02:56:19;95936.38;;;9.32
61595;BMP280;47397;48.194;11.632;2023-05-29T02:57:19;95932.28;;;9.23
61595;BMP280;47397;48.194;11.632;2023-05-29T02:58:21;95935.69;;;9.22
61595;BMP280;47397;48.194;11.632;2023-05-29T02:59:21;95937.34;;;9.23
61595;BMP280;47397;48.194;11.632;2023-05-29T03:00:22;95937.34;;;9.23
61595;BMP280;47397;48.194;11.632;2023-05-29T03:01:22;95932.44;;;9.14
61595;BMP280;47397;48.194;11.632;2023-05-29T03:02:23;95939.19;;;9.15
61595;BMP280;47397;48.194;11.632;2023-05-29T03:03:23;95936.50;;;9.24
61595;BMP280;47397;48.194;11.632;2023-05-29T03:04:24;95941.81;;;9.11
61595;BMP280;47397;48.194;11.632;2023-05-29T03:05:24;95940.34;;;8.97
61595;BMP280;47397;48.194;11.632;2023-05-29T03:06:24;95936.31;;;8.86
61595;BMP280;47397;48.194;11.632;2023-05-29T03:07:25;95940.38;;;8.96
61595;BMP280;47397;48.194;11.632;2023-05-29T03:08:26;95934.22;;;9.09
61595;BMP280;47397;48.194;11.632;2023-05-29T03:09:26;95933.28;;;9.15
61595;BMP280;47397;48.194;11.632;2023-05-29T03:10:27;95933.44;;;9.07
61595;BMP280;47397;48.194;11.632;2023-05-29T03:11:27;95936.78;;;9.07
61595;BMP280;47397;48.194;11.632;2023-05-29T03:12:27;95929.25;;;9.04
61595;BMP280;47397;48.194;11.632;2023-05-29T03:13:29;95937.91;;;8.93
61595;BMP280;47397;48.194;11.632;2023-05-29T03:14:29;95940.50;;;8.88
61595;BMP280;47397;48.194;11.632;2023-05-29T03:15:30;95934.63;;;8.85
61595;BMP280;47397;48.194;11.632;2023-05-29T03:16:30;95931.97;;;8.94
61595;BMP280;47397;48.194;11.632;2023-05-29T03:17:31;95936.25;;;8.89
61595;BMP280;47397;48.194;11.632;2023-05-29T03:18:31;95932.94;;;8.85
61595;BMP280;47397;48.194;11.632;2023-05-29T03:19:31;95931.13;;;8.92
61595;BMP280;47397;48.194;11.632;2023-05-29T03:20:32;95933.81;;;8.84
61595;BMP280;47397;48.194;11.632;2023-05-29T03:21:32;95926.19;;;8.84
61595;BMP280;47397;48.194;11.632;2023-05-29T03:22:33;95927.88;;;8.85
61595;BMP280;47397;48.194;11.632;2023-05-29T03:23:33;95940.47;;;8.90
61595;BMP280;47397;48.194;11.632;2023-05-29T03:24:34;95928.75;;;8.83
61595;BMP280;47397;48.194;11.632;2023-05-29T03:25:34;95934.53;;;8.92
61595;BMP280;47397;48.194;11.632;2023-05-29T03:26:35;95931.94;;;8.95
61595;BMP280;47397;48.194;11.632;2023-05-29T03:27:35;95934.38;;;9.01
61595;BMP280;47397;48.194;11.632;2023-05-29T03:28:37;95931.78;;;9.04
61595;BMP280;47397;48.194;11.632;2023-05-29T03:29:37;95931.16;;;8.90
61595;BMP280;47397;48.194;11.632;2023-05-29T03:30:38;95928.81;;;8.80
61595;BMP280;47397;48.194;11.632;2023-05-29T03:31:38;95934.53;;;8.92
61595;BMP280;47397;48.194;11.632;2023-05-29T03:32:38;95933.66;;;8.93
61595;BMP280;47397;48.194;11.632;2023-05-29T03:33:39;95934.53;;;8.92
61595;BMP280;47397;48.194;11.632;2023-05-29T03:34:39;95940.31;;;9.00
61595;BMP280;47397;48.194;11.632;2023-05-29T03:35:40;95941.19;;;8.98
61595;BMP280;47397;48.194;11.632;2023-05-29T03:36:40;95934.41;;;9.00
61595;BMP280;47397;48.194;11.632;2023-05-29T03:37:40;95936.94;;;9.00
61595;BMP280;47397;48.194;11.632;2023-05-29T03:38:41;95933.63;;;8.96
61595;BMP280;47397;48.194;11.632;2023-05-29T03:39:41;95941.88;;;9.07
61595;BMP280;47397;48.194;11.632;2023-05-29T03:40:42;95945.28;;;9.05
61595;BMP280;47397;48.194;11.632;2023-05-29T03:41:42;95940.31;;;9.00
61595;BMP280;47397;48.194;11.632;2023-05-29T03:42:42;95948.00;;;8.96
61595;BMP280;47397;48.194;11.632;2023-05-29T03:43:44;95947.22;;;8.92
61595;BMP280;47397;48.194;11.632;2023-05-29T03:44:44;95947.06;;;9.00
61595;BMP280;47397;48.194;11.632;2023-05-29T03:45:45;95948.13;;;8.87
61595;BMP280;47397;48.194;11.632;2023-05-29T03:46:45;95952.28;;;8.92
61595;BMP280;47397;48.194;11.632;2023-05-29T03:47:46;95951.31;;;8.99
61595;BMP280;47397;48.194;11.632;2023-05-29T03:48:46;95952.94;;;9.03
61595;BMP280;47397;48.194;11.632;2023-05-29T03:49:47;95954.63;;;9.03
61595;BMP280;47397;48.194;11.632;2023-05-29T03:50:47;95953.94;;;8.95
61595;BMP280;47397;48.194;11.632;2023-05-29T03:51:48;95959.03;;;8.90
61595;BMP280;47397;48.194;11.632;2023-05-29T03:52:49;95952.28;;;8.89
61595;BMP280;47397;48.194;11.632;2023-05-29T03:53:49;95953.94;;;8.93
61595;BMP280;47397;48.194;11.632;2023-05-29T03:54:50;95955.50;;;9.02
61595;BMP280;47397;48.194;11.632;2023-05-29T03:55:50;95958.06;;;9.00
61595;BMP280;47397;48.194;11.632;2023-05-29T03:56:50;95955.47;;;9.03
61595;BMP280;47397;48.194;11.632;2023-05-29T03:57:51;95955.44;;;9.05
61595;BMP280;47397;48.194;11.632;2023-05-29T03:58:53;95954.72;;;8.98
61595;BMP280;47397;48.194;11.632;2023-05-29T03:59:53;95953.97;;;8.90
61595;BMP280;47397;48.194;11.632;2023-05-29T04:00:54;95950.75;;;8.81
61595;BMP280;47397;48.194;11.632;2023-05-29T04:01:54;95952.44;;;8.80
61595;BMP280;47397;48.194;11.632;2023-05-29T04:02:55;95948.88;;;8.93
61595;BMP280;47397;48.194;11.632;2023-05-29T04:03:55;95950.34;;;9.06
61595;BMP280;47397;48.194;11.632;2023-05-29T04:04:56;95953.81;;;9.01
61595;BMP280;47397;48.194;11.632;2023-05-29T04:05:56;95950.50;;;8.97
61595;BMP280;47397;48.194;11.632;2023-05-29T04:06:57;95953.94;;;8.93
61595;BMP280;47397;48.194;11.632;2023-05-29T04:07:57;95957.13;;;9.04
61595;BMP280;47397;48.194;11.632;2023-05-29T04:08:57;95953.69;;;9.08
61595;BMP280;47397;48.194;11.632;2023-05-29T04:09:58;95956.13;;;9.13
61595;BMP280;47397;48.194;11.632;2023-05-29T04:10:58;95956.88;;;9.18
61595;BMP280;47397;48.194;11.632;2023-05-29T04:11:59;95958.03;;;9.02
61595;BMP280;47397;48.194;11.632;2023-05-29T04:13:00;95962.00;;;9.17
61595;BMP280;47397;48.194;11.632;2023-05-29T04:14:02;95962.75;;;9.20
61595;BMP280;47397;48.194;11.632;2023-05-29T04:15:03;95961.38;;;9.04
61595;BMP280;47397;48.194;11.632;2023-05-29T04:16:04;95963.47;;;9.30
61595;BMP280;47397;48.194;11.632;2023-05-29T04:17:04;95967.03;;;9.18
61595;BMP280;47397;48.194;11.632;2023-05-29T04:18:05;95969.44;;;9.24
61595;BMP280;47397;48.194;11.632;2023-05-29T04:19:05;95969.66;;;9.14
61595;BMP280;47397;48.194;11.632;2023-05-29T04:20:06;95967.88;;;9.19
61595;BMP280;47397;48.194;11.632;2023-05-29T04:21:07;95968.53;;;9.28
61595;BMP280;47397;48.194;11.632;2023-05-29T04:22:07;95973.41;;;9.40
61595;BMP280;47397;48.194;11.632;2023-05-29T04:23:08;95981.22;;;9.28
61595;BMP280;47397;48.194;11.632;2023-05-29T04:24:09;95978.59;;;9.34
61595;BMP280;47397;48.194;11.632;2023-05-29T04:25:09;95979.44;;;9.35
61595;BMP280;47397;48.194;11.632;2023-05-29T04:26:10;95986.09;;;9.40
61595;BMP280;47397;48.194;11.632;2023-05-29T04:27:10;95981.09;;;9.37
61595;BMP280;47397;48.194;11.632;2023-05-29T04:28:10;95982.88;;;9.32
61595;BMP280;47397;48.194;11.632;2023-05-29T04:29:13;95982.84;;;9.34
61595;BMP280;47397;48.194;11.632;2023-05-29T04:30:14;95973.59;;;9.28
61595;BMP280;47397;48.194;11.632;2023-05-29T04:31:14;95983.69;;;9.33
61595;BMP280;47397;48.194;11.632;2023-05-29T04:32:15;95986.28;;;9.28
61595;BMP280;47397;48.194;11.632;2023-05-29T04:33:17;95981.03;;;9.40
61595;BMP280;47397;48.194;11.632;2023-05-29T04:34:17;95981.09;;;9.37
61595;BMP280;47397;48.194;11.632;2023-05-29T04:35:18;95987.81;;;9.38
61595;BMP280;47397;48.194;11.632;2023-05-29T04:36:18;95988.66;;;9.39
61595;BMP280;47397;48.194;11.632;2023-05-29T04:37:18;95983.41;;;9.48
61595;BMP280;47397;48.194;11.632;2023-05-29T04:38:19;95987.63;;;9.49
61595;BMP280;47397;48.194;11.632;2023-05-29T04:39:19;95986.00;;;9.45
61595;BMP280;47397;48.194;11.632;2023-05-29T04:40:20;95990.16;;;9.49
61595;BMP280;47397;48.194;11.632;2023-05-29T04:41:20;95995.38;;;9.42
61595;BMP280;47397;48.194;11.632;2023-05-29T04:42:20;95984.22;;;9.50
61595;BMP280;47397;48.194;11.632;2023-05-29T04:43:21;95986.84;;;9.46
61595;BMP280;47397;48.194;11.632;2023-05-29T04:44:23;95989.94;;;9.61
61595;BMP280;47397;48.194;11.632;2023-05-29T04:45:23;95989.91;;;9.63
61595;BMP280;47397;48.194;11.632;2023-05-29T04:46:23;95992.34;;;9.69
61595;BMP280;47397;48.194;11.632;2023-05-29T04:47:24;95985.53;;;9.71
61595;BMP280;47397;48.194;11.632;2023-05-29T04:48:24;95988.84;;;9.75
61595;BMP280;47397;48.194;11.632;2023-05-29T04:49:25;95986.34;;;9.73
61595;BMP280;47397;48.194;11.632;2023-05-29T04:50:25;95988.72;;;9.82
61595;BMP280;47397;48.194;11.632;2023-05-29T04:51:25;95987.09;;;9.78
61595;BMP280;47397;48.194;11.632;2023-05-29T04:52:26;95993.75;;;9.84
61595;BMP280;47397;48.194;11.632;2023-05-29T04:53:26;95989.38;;;9.90
61595;BMP280;47397;48.194;11.632;2023-05-29T04:54:27;95993.56;;;9.93
61595;BMP280;47397;48.194;11.632;2023-05-29T04:55:27;96002.00;;;9.93
61595;BMP280;47397;48.194;11.632;2023-05-29T04:56:28;95996.06;;;9.94
61595;BMP280;47397;48.194;11.632;2023-05-29T04:57:28;95996.88;;;9.96
61595;BMP280;47397;48.194;11.632;2023-05-29T04:58:29;95999.19;;;10.09
61595;BMP280;47397;48.194;11.632;2023-05-29T04:59:30;95995.91;;;10.03
61595;BMP280;47397;48.194;11.632;2023-05-29T05:00:31;95998.44;;;10.03
61595;BMP280;47397;48.194;11.632;2023-05-29T05:01:31;95999.13;;;10.12
61595;BMP280;47397;48.194;11.632;2023-05-29T05:02:31;96000.84;;;10.11
61595;BMP280;47397;48.194;11.632;2023-05-29T05:03:32;95997.31;;;10.17
61595;BMP280;47397;48.194;11.632;2023-05-29T05:04:32;95995.59;;;10.20
61595;BMP280;47397;48.194;11.632;2023-05-29T05:05:33;96002.19;;;10.29
61595;BMP280;47397;48.194;11.632;2023-05-29T05:06:33;95995.31;;;10.32
61595;BMP280;47397;48.194;11.632;2023-05-29T05:07:33;95996.03;;;10.39
61595;BMP280;47397;48.194;11.632;2023-05-29T05:08:34;96003.41;;;10.51
61595;BMP280;47397;48.194;11.632;2023-05-29T05:09:34;95998.28;;;10.53
61595;BMP280;47397;48.194;11.632;2023-05-29T05:10:35;95996.50;;;10.56
61595;BMP280;47397;48.194;11.632;2023-05-29T05:11:35;95995.72;;;10.54
61595;BMP280;47397;48.194;11.632;2023-05-29T05:12:35;95999.69;;;10.66
61595;BMP280;47397;48.194;11.632;2023-05-29T05:13:36;95992.66;;;10.76
61595;BMP280;47397;48.194;11.632;2023-05-29T05:14:38;95995.00;;;10.86
61595;BMP280;47397;48.194;11.632;2023-05-29T05:15:38;95994.00;;;10.92
61595;BMP280;47397;48.194;11.632;2023-05-29T05:16:38;95990.88;;;11.16
61595;BMP280;47397;48.194;11.632;2023-05-29T05:17:39;95994.66;;;11.34
61595;BMP280;47397;48.194;11.632;2023-05-29T05:18:39;95997.38;;;11.61
61595;BMP280;47397;48.194;11.632;2023-05-29T05:19:40;95995.00;;;11.87
61595;BMP280;47397;48.194;11.632;2023-05-29T05:20:40;95989.50;;;12.02
61595;BMP280;47397;48.194;11.632;2023-05-29T05:21:40;95991.22;;;12.31
61595;BMP280;47397;48.194;11.632;2023-05-29T05:22:41;95989.94;;;12.46
61595;BMP280;47397;48.194;11.632;2023-05-29T05:23:41;95996.38;;;12.58
61595;BMP280;47397;48.194;11.632;2023-05-29T05:24:42;95992.28;;;12.80
61595;BMP280;47397;48.194;11.632;2023-05-29T05:25:42;95991.13;;;13.18
61595;BMP280;47397;48.194;11.632;2023-05-29T05:26:42;95998.41;;;13.02
61595;BMP280;47397;48.194;11.632;2023-05-29T05:27:43;95996.25;;;13.17
61595;BMP280;47397;48.194;11.632;2023-05-29T05:28:43;96005.28;;;13.27
61595;BMP280;47397;48.194;11.632;2023-05-29T05:29:45;95999.00;;;13.37
61595;BMP280;47397;48.194;11.632;2023-05-29T05:30:45;96005.22;;;13.80
61595;BMP280;47397;48.194;11.632;2023-05-29T05:31:46;96000.84;;;13.58
61595;BMP280;47397;48.194;11.632;2023-05-29T05:32:46;95998.34;;;13.82
61595;BMP280;47397;48.194;11.632;2023-05-29T05:33:46;96003.97;;;13.91
61595;BMP280;47397;48.194;11.632;2023-05-29T05:34:47;96008.34;;;14.11
61595;BMP280;47397;48.194;11.632;2023-05-29T05:35:47;96007.78;;;14.03
61595;BMP280;47397;48.194;11.632;2023-05-29T05:36:48;96004.69;;;14.42
61595;BMP280;47397;48.194;11.632;2023-05-29T05:37:48;95999.31;;;14.26
61595;BMP280;47397;48.194;11.632;2023-05-29T05:38:48;96006.97;;;14.49
61595;BMP280;47397;48.194;11.632;2023-05-29T05:39:49;96006.13;;;14.72
61595;BMP280;47397;48.194;11.632;2023-05-29T05:40:49;95999.53;;;14.88
61595;BMP280;47397;48.194;11.632;2023-05-29T05:41:50;96009.09;;;14.61
61595;BMP280;47397;48.194;11.632;2023-05-29T05:42:50;96010.94;;;14.58
61595;BMP280;47397;48.194;11.632;2023-05-29T05:43:50;96006.19;;;15.14
61595;BMP280;47397;48.194;11.632;2023-05-29T05:44:52;96005.47;;;15.11
61595;BMP280;47397;48.194;11.632;2023-05-29T05:45:53;96011.28;;;15.14
61595;BMP280;47397;48.194;11.632;2023-05-29T05:46:53;96003.28;;;15.01
61595;BMP280;47397;48.194;11.632;2023-05-29T05:47:53;96009.16;;;15.25
61595;BMP280;47397;48.194;11.632;2023-05-29T05:48:54;96009.63;;;15.13
61595;BMP280;47397;48.194;11.632;2023-05-29T05:49:54;96011.66;;;15.27
61595;BMP280;47397;48.194;11.632;2023-05-29T05:50:55;96014.75;;;15.35